createdAt,value
2018-12-30T00:02:26.030Z,3.44
2018-12-30T00:04:58.515Z,3.43
2018-12-30T00:07:30.938Z,3.54
2018-12-30T00:10:03.577Z,3.60
2018-12-30T00:12:35.649Z,3.52
2018-12-30T00:15:07.644Z,3.52
2018-12-30T00:17:39.671Z,3.53
2018-12-30T00:20:11.695Z,3.53
2018-12-30T00:22:43.722Z,3.56
2018-12-30T00:25:15.789Z,3.54
2018-12-30T00:27:47.797Z,3.53
2018-12-30T00:30:19.837Z,3.54
2018-12-30T00:32:51.827Z,3.53
2018-12-30T00:35:23.844Z,3.60
2018-12-30T00:37:55.811Z,3.57
2018-12-30T00:40:27.925Z,3.69
2018-12-30T00:42:59.921Z,3.67
2018-12-30T00:45:31.925Z,3.60
2018-12-30T00:48:03.900Z,3.59
2018-12-30T00:50:35.911Z,3.53
2018-12-30T00:53:07.923Z,3.45
2018-12-30T00:55:39.926Z,3.47
2018-12-30T00:58:11.913Z,3.51
2018-12-30T01:00:43.931Z,3.52
2018-12-30T01:03:15.955Z,3.52
2018-12-30T01:05:48.037Z,3.57
2018-12-30T01:08:20.040Z,3.58
2018-12-30T01:10:52.049Z,3.63
2018-12-30T01:13:24.432Z,3.64
2018-12-30T01:15:56.586Z,3.66
2018-12-30T01:18:28.548Z,3.70
2018-12-30T01:21:00.538Z,3.72
2018-12-30T01:23:32.538Z,3.74
2018-12-30T01:26:04.536Z,3.72
2018-12-30T01:28:36.540Z,3.79
2018-12-30T01:31:08.539Z,3.71
2018-12-30T01:33:40.544Z,3.64
2018-12-30T01:36:12.952Z,3.68
2018-12-30T01:38:44.908Z,3.76
2018-12-30T01:41:16.926Z,3.74
2018-12-30T01:43:48.907Z,3.73
2018-12-30T01:46:21.109Z,3.74
2018-12-30T01:48:53.090Z,3.73
2018-12-30T01:51:32.821Z,3.79
2018-12-30T01:53:59.587Z,3.83
2018-12-30T01:56:31.792Z,3.83
2018-12-30T01:59:03.822Z,3.83
2018-12-30T02:01:35.840Z,3.83
2018-12-30T02:04:07.818Z,3.86
2018-12-30T02:06:39.834Z,3.83
2018-12-30T02:09:11.831Z,3.86
2018-12-30T02:11:43.800Z,3.92
2018-12-30T02:14:15.791Z,3.98
2018-12-30T02:16:47.748Z,3.99
2018-12-30T02:19:19.748Z,4.03
2018-12-30T02:21:51.716Z,4.17
2018-12-30T02:24:23.703Z,4.11
2018-12-30T02:26:55.699Z,4.16
2018-12-30T02:29:27.684Z,4.20
2018-12-30T02:31:59.635Z,4.24
2018-12-30T02:34:31.629Z,4.29
2018-12-30T02:37:03.579Z,4.25
2018-12-30T02:39:35.812Z,4.26
2018-12-30T02:42:07.769Z,4.43
2018-12-30T02:44:39.741Z,4.36
2018-12-30T02:47:11.747Z,4.34
2018-12-30T02:49:43.782Z,4.38
2018-12-30T02:52:15.814Z,4.39
2018-12-30T02:54:47.795Z,4.42
2018-12-30T02:57:19.747Z,4.60
2018-12-30T02:59:51.758Z,4.54
2018-12-30T03:02:23.732Z,4.56
2018-12-30T03:04:55.721Z,4.76
2018-12-30T03:07:27.739Z,4.70
2018-12-30T03:09:59.743Z,4.70
2018-12-30T03:12:31.718Z,4.67
2018-12-30T03:15:03.897Z,4.75
2018-12-30T03:17:35.841Z,4.87
2018-12-30T03:20:07.822Z,4.69
2018-12-30T03:22:39.811Z,4.74
2018-12-30T03:25:11.815Z,4.79
2018-12-30T03:27:43.781Z,4.70
2018-12-30T03:30:15.806Z,4.85
2018-12-30T03:32:47.754Z,4.75
2018-12-30T03:35:19.701Z,4.77
2018-12-30T03:37:51.718Z,4.77
2018-12-30T03:40:23.665Z,4.74
2018-12-30T03:42:55.673Z,4.76
2018-12-30T03:45:27.682Z,4.93
2018-12-30T03:47:59.677Z,4.84
2018-12-30T03:50:31.647Z,4.79
2018-12-30T03:53:03.679Z,4.72
2018-12-30T03:55:35.786Z,4.76
2018-12-30T03:58:07.781Z,4.86
2018-12-30T04:00:39.744Z,4.76
2018-12-30T04:03:11.726Z,4.75
2018-12-30T04:05:43.713Z,4.91
2018-12-30T04:08:15.745Z,4.86
2018-12-30T04:10:47.705Z,4.85
2018-12-30T04:13:19.682Z,4.78
2018-12-30T04:15:51.621Z,4.84
2018-12-30T04:18:23.606Z,4.91
2018-12-30T04:20:55.561Z,5.01
2018-12-30T04:23:27.722Z,4.96
2018-12-30T04:25:59.712Z,4.87
2018-12-30T04:28:31.770Z,4.90
2018-12-30T04:31:03.757Z,4.92
2018-12-30T04:33:35.719Z,4.86
2018-12-30T04:36:07.740Z,4.92
2018-12-30T04:38:39.725Z,4.92
2018-12-30T04:41:11.718Z,4.85
2018-12-30T04:43:43.665Z,5.04
2018-12-30T04:46:15.647Z,4.93
2018-12-30T04:48:47.622Z,4.88
2018-12-30T04:51:19.613Z,4.94
2018-12-30T04:53:51.587Z,4.90
2018-12-30T04:56:23.579Z,4.97
2018-12-30T04:58:55.521Z,5.07
2018-12-30T05:01:27.512Z,4.93
2018-12-30T05:03:59.484Z,4.86
2018-12-30T05:06:31.515Z,4.92
2018-12-30T05:09:05.824Z,4.91
2018-12-30T05:11:37.861Z,5.00
2018-12-30T05:14:09.843Z,4.97
2018-12-30T05:16:41.830Z,4.91
2018-12-30T05:19:13.816Z,4.89
2018-12-30T05:21:45.813Z,5.04
2018-12-30T05:24:17.815Z,5.00
2018-12-30T05:26:49.791Z,4.96
2018-12-30T05:29:21.750Z,4.94
2018-12-30T05:31:53.743Z,5.03
2018-12-30T05:34:25.708Z,5.00
2018-12-30T05:36:57.693Z,5.01
2018-12-30T05:39:29.662Z,4.97
2018-12-30T05:42:01.623Z,4.92
2018-12-30T05:44:33.617Z,4.94
2018-12-30T05:47:07.031Z,4.96
2018-12-30T05:49:39.141Z,4.91
2018-12-30T05:52:11.103Z,5.02
2018-12-30T05:54:43.082Z,5.16
2018-12-30T05:57:15.065Z,5.03
2018-12-30T05:59:47.065Z,4.96
2018-12-30T06:02:19.433Z,4.93
2018-12-30T06:04:51.406Z,4.97
2018-12-30T06:07:23.488Z,5.02
2018-12-30T06:09:55.491Z,5.01
2018-12-30T06:12:27.460Z,5.00
2018-12-30T06:14:59.689Z,5.05
2018-12-30T06:17:31.682Z,5.06
2018-12-30T06:20:03.948Z,5.09
2018-12-30T06:22:35.899Z,5.06
2018-12-30T06:25:07.902Z,5.12
2018-12-30T06:27:39.859Z,5.11
2018-12-30T06:30:11.848Z,5.11
2018-12-30T06:32:43.825Z,5.05
2018-12-30T06:35:15.812Z,5.23
2018-12-30T06:37:47.787Z,5.10
2018-12-30T06:40:19.795Z,5.10
2018-12-30T06:42:51.776Z,5.05
2018-12-30T06:45:23.738Z,5.07
2018-12-30T06:47:55.700Z,5.09
2018-12-30T06:50:27.743Z,5.06
2018-12-30T06:52:59.732Z,5.07
2018-12-30T06:55:31.737Z,5.06
2018-12-30T06:58:03.692Z,5.09
2018-12-30T07:00:35.678Z,5.06
2018-12-30T07:03:07.676Z,5.12
2018-12-30T07:05:39.656Z,5.09
2018-12-30T07:08:11.661Z,5.11
2018-12-30T07:10:43.637Z,5.11
2018-12-30T07:13:15.635Z,5.09
2018-12-30T07:15:47.603Z,5.06
2018-12-30T07:18:19.598Z,5.14
2018-12-30T07:20:51.588Z,5.17
2018-12-30T07:23:23.683Z,5.13
2018-12-30T07:25:55.677Z,5.12
2018-12-30T07:28:27.672Z,5.17
2018-12-30T07:30:59.686Z,5.19
2018-12-30T07:33:31.689Z,5.22
2018-12-30T07:36:03.655Z,5.17
2018-12-30T07:38:35.643Z,5.15
2018-12-30T07:41:07.675Z,5.31
2018-12-30T07:43:39.703Z,5.19
2018-12-30T07:46:11.670Z,5.18
2018-12-30T07:48:43.648Z,5.20
2018-12-30T07:51:15.624Z,5.22
2018-12-30T07:53:47.641Z,5.24
2018-12-30T07:56:19.620Z,5.28
2018-12-30T07:58:51.637Z,5.19
2018-12-30T08:01:23.597Z,5.22
2018-12-30T08:03:55.589Z,5.24
2018-12-30T08:06:27.590Z,5.24
2018-12-30T08:08:59.603Z,5.26
2018-12-30T08:11:31.571Z,5.28
2018-12-30T08:14:03.547Z,5.26
2018-12-30T08:16:35.560Z,5.35
2018-12-30T08:19:07.570Z,5.34
2018-12-30T08:21:39.576Z,5.38
2018-12-30T08:24:11.594Z,5.40
2018-12-30T08:26:43.579Z,5.38
2018-12-30T08:29:15.837Z,5.63
2018-12-30T08:31:47.830Z,5.66
2018-12-30T08:34:19.842Z,5.52
2018-12-30T08:36:51.883Z,5.58
2018-12-30T08:39:23.880Z,5.65
2018-12-30T08:41:55.907Z,5.48
2018-12-30T08:44:27.893Z,5.45
2018-12-30T08:46:59.963Z,5.59
2018-12-30T08:49:31.987Z,5.63
2018-12-30T08:52:04.010Z,5.57
2018-12-30T08:54:35.991Z,5.53
2018-12-30T08:57:08.032Z,5.62
2018-12-30T08:59:40.044Z,5.64
2018-12-30T09:02:12.049Z,5.61
2018-12-30T09:04:44.054Z,5.63
2018-12-30T09:07:16.101Z,5.68
2018-12-30T09:09:48.108Z,5.73
2018-12-30T09:12:20.116Z,5.77
2018-12-30T09:14:52.116Z,5.78
2018-12-30T09:17:24.125Z,5.82
2018-12-30T09:19:56.125Z,5.82
2018-12-30T09:22:28.159Z,5.84
2018-12-30T09:25:00.170Z,5.93
2018-12-30T09:27:32.176Z,5.94
2018-12-30T09:30:05.008Z,5.96
2018-12-30T09:32:37.029Z,5.96
2018-12-30T09:35:09.136Z,6.00
2018-12-30T09:37:41.204Z,6.04
2018-12-30T09:40:13.313Z,6.14
2018-12-30T09:42:46.583Z,6.23
2018-12-30T09:45:18.616Z,6.28
2018-12-30T09:47:50.715Z,6.46
2018-12-30T09:50:22.738Z,6.40
2018-12-30T09:52:54.738Z,6.41
2018-12-30T09:55:26.764Z,6.34
2018-12-30T09:57:58.768Z,6.37
2018-12-30T10:00:31.110Z,6.36
2018-12-30T10:03:03.483Z,6.37
2018-12-30T10:05:35.457Z,6.36
2018-12-30T10:08:07.487Z,6.48
2018-12-30T10:10:39.530Z,6.40
2018-12-30T10:13:11.590Z,6.44
2018-12-30T10:15:43.637Z,6.50
2018-12-30T10:18:15.620Z,6.48
2018-12-30T10:20:47.637Z,6.45
2018-12-30T10:23:19.657Z,6.54
2018-12-30T10:25:51.695Z,6.50
2018-12-30T10:28:23.724Z,6.44
2018-12-30T10:30:55.740Z,6.45
2018-12-30T10:33:27.778Z,6.47
2018-12-30T10:35:59.819Z,6.49
2018-12-30T10:38:31.838Z,6.57
2018-12-30T10:41:03.969Z,6.51
2018-12-30T10:43:36.029Z,6.53
2018-12-30T10:46:08.049Z,6.50
2018-12-30T10:48:40.078Z,6.53
2018-12-30T10:51:12.110Z,6.76
2018-12-30T10:53:44.197Z,6.60
2018-12-30T10:56:16.258Z,6.54
2018-12-30T10:58:48.294Z,6.49
2018-12-30T11:01:20.381Z,6.51
2018-12-30T11:03:52.357Z,6.48
2018-12-30T11:06:24.432Z,6.52
2018-12-30T11:08:56.459Z,6.59
2018-12-30T11:11:28.489Z,6.65
2018-12-30T11:14:00.528Z,6.76
2018-12-30T11:16:32.551Z,6.74
2018-12-30T11:19:04.607Z,6.76
2018-12-30T11:21:36.671Z,6.84
2018-12-30T11:24:09.011Z,6.83
2018-12-30T11:26:41.642Z,6.89
2018-12-30T11:29:13.694Z,6.90
2018-12-30T11:31:45.723Z,6.97
2018-12-30T11:34:17.732Z,6.94
2018-12-30T11:36:49.747Z,6.96
2018-12-30T11:39:21.797Z,7.02
2018-12-30T11:41:54.852Z,7.05
2018-12-30T11:44:26.971Z,6.98
2018-12-30T11:46:59.048Z,6.98
2018-12-30T11:49:31.091Z,6.97
2018-12-30T11:52:03.229Z,7.05
2018-12-30T11:54:35.535Z,7.01
2018-12-30T11:57:07.561Z,7.03
2018-12-30T11:59:39.643Z,7.00
2018-12-30T12:02:11.714Z,7.01
2018-12-30T12:04:43.805Z,7.11
2018-12-30T12:07:15.904Z,7.13
2018-12-30T12:09:48.057Z,7.00
2018-12-30T12:12:20.122Z,7.06
2018-12-30T12:14:52.190Z,6.92
2018-12-30T12:17:24.180Z,6.87
2018-12-30T12:19:56.265Z,6.91
2018-12-30T12:22:28.279Z,6.86
2018-12-30T12:25:00.399Z,6.85
2018-12-30T12:27:32.435Z,6.86
2018-12-30T12:30:06.224Z,6.84
2018-12-30T12:32:38.301Z,6.77
2018-12-30T12:35:10.414Z,6.80
2018-12-30T12:37:42.453Z,6.89
2018-12-30T12:40:14.527Z,6.96
2018-12-30T12:42:46.561Z,6.92
2018-12-30T12:45:18.657Z,6.89
2018-12-30T12:47:50.766Z,6.84
2018-12-30T12:50:22.781Z,6.89
2018-12-30T12:52:54.830Z,6.87
2018-12-30T12:55:26.950Z,6.91
2018-12-30T12:57:58.979Z,6.92
2018-12-30T13:00:31.035Z,6.85
2018-12-30T13:03:03.149Z,6.83
2018-12-30T13:05:35.238Z,6.82
2018-12-30T13:08:07.257Z,6.92
2018-12-30T13:10:39.298Z,6.93
2018-12-30T13:13:11.402Z,6.99
2018-12-30T13:15:43.660Z,6.95
2018-12-30T13:18:15.676Z,6.89
2018-12-30T13:20:47.699Z,7.01
2018-12-30T13:23:19.798Z,6.93
2018-12-30T13:25:51.834Z,6.90
2018-12-30T13:28:23.999Z,6.90
2018-12-30T13:30:56.022Z,6.84
2018-12-30T13:33:28.071Z,6.87
2018-12-30T13:36:00.088Z,6.88
2018-12-30T13:38:32.142Z,6.83
2018-12-30T13:41:04.155Z,6.85
2018-12-30T13:43:36.208Z,7.01
2018-12-30T13:46:08.267Z,7.04
2018-12-30T13:48:40.325Z,6.92
2018-12-30T13:51:12.408Z,6.84
2018-12-30T13:53:44.567Z,6.82
2018-12-30T13:56:16.614Z,6.80
2018-12-30T13:58:48.679Z,6.75
2018-12-30T14:01:20.702Z,6.83
2018-12-30T14:03:53.012Z,6.81
2018-12-30T14:06:25.063Z,6.86
2018-12-30T14:08:57.134Z,6.83
2018-12-30T14:11:29.227Z,6.83
2018-12-30T14:14:01.259Z,6.82
2018-12-30T14:16:33.360Z,6.85
2018-12-30T14:19:05.391Z,6.84
2018-12-30T14:21:37.459Z,6.86
2018-12-30T14:24:09.437Z,6.87
2018-12-30T14:26:41.496Z,6.85
2018-12-30T14:29:13.501Z,6.77
2018-12-30T14:31:45.614Z,6.80
2018-12-30T14:34:17.627Z,6.71
2018-12-30T14:36:49.699Z,6.73
2018-12-30T14:39:21.807Z,6.73
2018-12-30T14:41:53.930Z,6.69
2018-12-30T14:44:26.012Z,6.79
2018-12-30T14:46:58.133Z,6.73
2018-12-30T14:49:30.335Z,6.80
2018-12-30T14:52:02.375Z,6.69
2018-12-30T14:54:34.416Z,6.65
2018-12-30T14:57:06.515Z,6.59
2018-12-30T14:59:38.600Z,6.59
2018-12-30T15:02:10.662Z,6.58
2018-12-30T15:04:42.677Z,6.51
2018-12-30T15:07:14.767Z,6.61
2018-12-30T15:09:46.865Z,6.66
2018-12-30T15:12:18.910Z,6.71
2018-12-30T15:14:50.969Z,6.64
2018-12-30T15:17:23.122Z,6.60
2018-12-30T15:19:55.209Z,6.49
2018-12-30T15:22:27.265Z,6.42
2018-12-30T15:24:59.308Z,6.45
2018-12-30T15:27:31.386Z,6.45
2018-12-30T15:30:04.499Z,6.43
2018-12-30T15:32:36.537Z,6.50
2018-12-30T15:35:08.546Z,6.43
2018-12-30T15:37:40.588Z,6.47
2018-12-30T15:40:12.623Z,6.41
2018-12-30T15:42:44.727Z,6.37
2018-12-30T15:45:16.784Z,6.36
2018-12-30T15:47:48.830Z,6.36
2018-12-30T15:50:20.855Z,6.39
2018-12-30T15:52:52.928Z,6.30
2018-12-30T15:55:24.937Z,6.34
2018-12-30T15:57:57.052Z,6.29
2018-12-30T16:00:29.129Z,6.33
2018-12-30T16:03:01.188Z,6.39
2018-12-30T16:05:33.315Z,6.34
2018-12-30T16:08:05.357Z,6.33
2018-12-30T16:10:37.425Z,6.24
2018-12-30T16:13:09.488Z,6.23
2018-12-30T16:15:41.724Z,6.27
2018-12-30T16:18:13.843Z,6.28
2018-12-30T16:20:45.929Z,6.35
2018-12-30T16:23:17.956Z,6.31
2018-12-30T16:25:50.178Z,6.31
2018-12-30T16:28:22.246Z,6.25
2018-12-30T16:30:54.326Z,6.36
2018-12-30T16:33:26.380Z,6.28
2018-12-30T16:35:58.400Z,6.19
2018-12-30T16:38:30.443Z,6.22
2018-12-30T16:41:02.517Z,6.20
2018-12-30T16:43:34.579Z,6.18
2018-12-30T16:46:06.689Z,6.16
2018-12-30T16:48:38.746Z,6.20
2018-12-30T16:51:10.827Z,6.18
2018-12-30T16:53:42.880Z,6.12
2018-12-30T16:56:14.932Z,6.11
2018-12-30T16:58:46.967Z,6.30
2018-12-30T17:01:19.025Z,6.21
2018-12-30T17:03:51.068Z,6.15
2018-12-30T17:06:23.144Z,6.14
2018-12-30T17:08:55.187Z,6.18
2018-12-30T17:11:27.204Z,6.19
2018-12-30T17:13:59.289Z,6.19
2018-12-30T17:16:31.307Z,6.14
2018-12-30T17:19:03.430Z,6.12
2018-12-30T17:21:35.465Z,6.13
2018-12-30T17:24:07.489Z,6.09
2018-12-30T17:26:39.516Z,6.11
2018-12-30T17:29:11.594Z,6.13
2018-12-30T17:31:43.607Z,6.22
2018-12-30T17:34:15.651Z,6.14
2018-12-30T17:36:47.665Z,6.10
2018-12-30T17:39:19.691Z,6.09
2018-12-30T17:41:51.735Z,6.09
2018-12-30T17:44:23.766Z,6.11
2018-12-30T17:46:55.828Z,6.16
2018-12-30T17:49:27.896Z,6.13
2018-12-30T17:51:59.882Z,6.13
2018-12-30T17:54:31.954Z,6.14
2018-12-30T17:57:03.950Z,6.20
2018-12-30T17:59:36.043Z,6.19
2018-12-30T18:02:08.031Z,6.15
2018-12-30T18:04:40.096Z,6.09
2018-12-30T18:07:12.176Z,6.12
2018-12-30T18:09:44.239Z,6.11
2018-12-30T18:12:16.295Z,6.09
2018-12-30T18:14:48.333Z,5.99
2018-12-30T18:17:20.390Z,5.99
2018-12-30T18:19:52.649Z,6.02
2018-12-30T18:22:24.695Z,6.03
2018-12-30T18:24:56.707Z,6.00
2018-12-30T18:27:28.767Z,6.06
2018-12-30T18:30:00.830Z,6.01
2018-12-30T18:32:32.944Z,6.01
2018-12-30T18:35:04.973Z,5.97
2018-12-30T18:37:37.042Z,5.95
2018-12-30T18:40:09.140Z,5.94
2018-12-30T18:42:41.193Z,5.93
2018-12-30T18:45:13.199Z,5.92
2018-12-30T18:47:45.246Z,5.91
2018-12-30T18:50:17.290Z,5.94
2018-12-30T18:52:49.352Z,5.95
2018-12-30T18:55:21.413Z,5.93
2018-12-30T18:57:53.507Z,5.91
2018-12-30T19:00:25.620Z,5.91
2018-12-30T19:02:57.742Z,5.92
2018-12-30T19:05:29.811Z,5.90
2018-12-30T19:08:03.669Z,5.92
2018-12-30T19:10:35.869Z,5.92
2018-12-30T19:13:07.940Z,5.92
2018-12-30T19:15:40.072Z,5.93
2018-12-30T19:18:12.151Z,5.90
2018-12-30T19:21:03.654Z,5.90
2018-12-30T19:23:35.709Z,5.93
2018-12-30T19:26:14.305Z,5.87
2018-12-30T19:28:41.722Z,5.83
2018-12-30T19:31:21.162Z,5.84
2018-12-30T19:33:53.259Z,5.80
2018-12-30T19:36:25.325Z,5.79
2018-12-30T19:38:57.413Z,5.81
2018-12-30T19:44:11.551Z,5.79
2018-12-30T19:46:43.626Z,5.77
2018-12-30T19:49:15.716Z,5.75
2018-12-30T19:51:47.774Z,5.75
2018-12-30T19:54:19.834Z,5.73
2018-12-30T19:56:51.938Z,5.71
2018-12-30T19:59:24.023Z,5.70
2018-12-30T20:01:56.136Z,5.68
2018-12-30T20:04:28.256Z,5.67
2018-12-30T20:07:00.320Z,5.67
2018-12-30T20:09:32.317Z,5.64
2018-12-30T20:12:04.363Z,5.65
2018-12-30T20:14:36.402Z,5.61
2018-12-30T20:17:08.489Z,5.60
2018-12-30T20:19:40.511Z,5.63
2018-12-30T20:22:12.553Z,5.59
2018-12-30T20:24:44.571Z,5.61
2018-12-30T20:27:16.901Z,5.61
2018-12-30T20:29:48.973Z,5.57
2018-12-30T20:32:21.072Z,5.55
2018-12-30T20:34:53.094Z,5.56
2018-12-30T20:37:25.160Z,5.54
2018-12-30T20:39:57.162Z,5.52
2018-12-30T20:42:29.179Z,5.50
2018-12-30T20:45:01.225Z,5.49
2018-12-30T20:47:33.298Z,5.48
2018-12-30T20:50:05.592Z,5.47
2018-12-30T20:52:37.720Z,5.47
2018-12-30T20:55:09.785Z,5.46
2018-12-30T20:57:41.954Z,5.46
2018-12-30T21:00:15.472Z,5.42
2018-12-30T21:02:48.259Z,5.42
2018-12-30T21:05:20.401Z,5.42
2018-12-30T21:07:52.493Z,5.42
2018-12-30T21:10:24.567Z,5.40
2018-12-30T21:12:56.679Z,5.39
2018-12-30T21:15:28.701Z,5.32
2018-12-30T21:18:00.798Z,5.31
2018-12-30T21:20:32.858Z,5.35
2018-12-30T21:23:04.961Z,5.33
2018-12-30T21:25:36.991Z,5.34
2018-12-30T21:28:09.055Z,5.37
2018-12-30T21:30:41.071Z,5.34
2018-12-30T21:33:13.130Z,5.33
2018-12-30T21:35:45.183Z,5.35
2018-12-30T21:38:17.198Z,5.34
2018-12-30T21:40:49.252Z,5.32
2018-12-30T21:43:21.263Z,5.33
2018-12-30T21:45:53.332Z,5.31
2018-12-30T21:48:25.357Z,5.31
2018-12-30T21:50:57.432Z,5.31
2018-12-30T21:53:29.474Z,5.30
2018-12-30T21:56:01.554Z,5.30
2018-12-30T21:58:33.575Z,5.31
2018-12-30T22:01:05.643Z,5.29
2018-12-30T22:03:37.795Z,5.26
2018-12-30T22:06:09.915Z,5.26
2018-12-30T22:08:41.945Z,5.27
2018-12-30T22:11:13.970Z,5.25
2018-12-30T22:13:45.992Z,5.22
2018-12-30T22:16:18.067Z,5.22
2018-12-30T22:18:50.087Z,5.22
2018-12-30T22:21:22.120Z,5.22
2018-12-30T22:23:54.154Z,5.22
2018-12-30T22:26:26.220Z,5.24
2018-12-30T22:28:58.268Z,5.23
2018-12-30T22:31:30.319Z,5.24
2018-12-30T22:34:02.351Z,5.26
2018-12-30T22:36:34.392Z,5.26
2018-12-30T22:39:06.631Z,5.24
2018-12-30T22:41:38.710Z,5.28
2018-12-30T22:44:10.728Z,5.27
2018-12-30T22:46:42.786Z,5.25
2018-12-30T22:49:14.789Z,5.20
2018-12-30T22:51:46.896Z,5.20
2018-12-30T22:54:18.930Z,5.24
2018-12-30T22:56:51.001Z,5.22
2018-12-30T22:59:23.038Z,5.24
2018-12-30T23:01:55.096Z,5.22
2018-12-30T23:04:27.150Z,5.25
2018-12-30T23:09:37.156Z,5.19
2018-12-30T23:12:09.174Z,5.18
2018-12-30T23:14:43.921Z,5.20
2018-12-30T23:17:16.024Z,5.19
2018-12-30T23:19:48.098Z,5.24
2018-12-30T23:22:20.183Z,5.26
2018-12-30T23:24:52.223Z,5.25
2018-12-30T23:27:24.315Z,5.21
2018-12-30T23:29:56.340Z,5.30
2018-12-30T23:32:28.373Z,5.24
2018-12-30T23:35:00.421Z,5.26
2018-12-30T23:37:32.486Z,5.29
2018-12-30T23:40:04.518Z,5.26
2018-12-30T23:42:36.565Z,5.25
2018-12-30T23:45:08.569Z,5.26
2018-12-30T23:47:40.571Z,5.29
2018-12-30T23:50:12.591Z,5.28
2018-12-30T23:52:44.619Z,5.30
2018-12-30T23:55:16.651Z,5.30
2018-12-30T23:57:48.713Z,5.32
